Dades meteomassalio
Diari Summary for Diciembre 3, 2017 Units:  English    Metric   Both
« Previous Day
Next Day »
Diari Semanal Mensual Anual Personalitzat
  Maxima: Minima: Mijana:
Temperatura: 48 °F 27 °F 38.3 °F
Rosada: 27.7 °F 14.9 °F 19.6 °F
Humitat: 73 % 30 % 49 %
Velocitat del vent: 26.5 mph 1.2 mph 14.5 mph
Racha vent: 26.5 mph - -
Vent:- - NW
Pressio: 30.5 in 30.3 in -
Pluja: 0 in    
Historical Graphs
 
 
Tabular Data for Diciembre 3, 2017
Time Temperature Dew Point Pressure Wind Wind Speed Wind Gust Humidity Rainfall Rate (Hourly) solar Conditions
00:04 34 °F 23.7 °F 30.3 in WNW 20.7 mph 20.7 mph 66 % 0 in 0.0 W/m2 CLR
00:14 34 °F 23.7 °F 30.3 in WNW 18.4 mph 18.4 mph 66 % 0 in 0.0 W/m2 CLR
00:19 34 °F 23.7 °F 30.3 in NNW 15 mph 15 mph 66 % 0 in 0.0 W/m2 CLR
00:24 35.1 °F 24.8 °F 30.3 in NW 11.5 mph 11.5 mph 66 % 0 in 0.0 W/m2 CLR
00:29 34 °F 23.7 °F 30.3 in WNW 15 mph 15 mph 66 % 0 in 0.0 W/m2 CLR
00:34 34 °F 23.5 °F 30.3 in NW 10.4 mph 10.4 mph 65 % 0 in 0.0 W/m2 CLR
00:39 34 °F 23.5 °F 30.3 in NW 14 mph 14 mph 65 % 0 in 0.0 W/m2 CLR
00:49 34 °F 23.5 °F 30.3 in NW 11.5 mph 11.5 mph 65 % 0 in 0.0 W/m2 CLR
01:05 34 °F 23.2 °F 30.3 in West 11.5 mph 11.5 mph 64 % 0 in 0.0 W/m2 CLR
01:10 34 °F 22.6 °F 30.3 in WNW 7 mph 7.1 mph 63 % 0 in 0.0 W/m2 CLR
01:15 34 °F 22.6 °F 30.3 in WNW 10 mph 10 mph 63 % 0 in 0.0 W/m2 CLR
01:20 34 °F 22.6 °F 30.3 in WNW 9.2 mph 9.2 mph 63 % 0 in 0.0 W/m2 CLR
01:25 34 °F 22.3 °F 30.3 in West 11.5 mph 11.5 mph 62 % 0 in 0.0 W/m2 CLR
01:30 34 °F 22.3 °F 30.3 in NW 12 mph 12 mph 62 % 0 in 0.0 W/m2 CLR
01:40 34 °F 21.9 °F 30.3 in WNW 15 mph 15 mph 61 % 0 in 0.0 W/m2 CLR
01:45 34 °F 21.6 °F 30.3 in NW 12.7 mph 12.7 mph 60 % 0 in 0.0 W/m2 CLR
01:55 34 °F 21.6 °F 30.3 in NW 13 mph 13 mph 60 % 0 in 0.0 W/m2 CLR
02:00 34 °F 21.6 °F 30.3 in NW 15 mph 15 mph 60 % 0 in 0.0 W/m2 CLR
02:05 34 °F 21.6 °F 30.3 in NW 15 mph 15 mph 60 % 0 in 0.0 W/m2 CLR
02:10 34 °F 21.6 °F 30.3 in NW 15 mph 15 mph 60 % 0 in 0.0 W/m2 CLR
02:15 34 °F 21.6 °F 30.3 in NW 19.6 mph 19.6 mph 60 % 0 in 0.0 W/m2 CLR
02:25 34 °F 21.6 °F 30.3 in NW 17.3 mph 17.3 mph 60 % 0 in 0.0 W/m2 CLR
02:35 34 °F 21.9 °F 30.3 in WNW 16.1 mph 16.1 mph 61 % 0 in 0.0 W/m2 CLR
02:40 34 °F 21.9 °F 30.3 in NW 13.8 mph 13.8 mph 61 % 0 in 0.0 W/m2 CLR
02:50 34 °F 21.6 °F 30.3 in West 12.7 mph 12.7 mph 60 % 0 in 0.0 W/m2 CLR
03:00 34 °F 21.6 °F 30.3 in WNW 12.7 mph 12.7 mph 60 % 0 in 0.0 W/m2 CLR
03:05 34 °F 21.6 °F 30.3 in NW 11.5 mph 11.5 mph 60 % 0 in 0.0 W/m2 CLR
03:15 34 °F 21.6 °F 30.3 in WNW 9.2 mph 9.2 mph 60 % 0 in 0.0 W/m2 CLR
03:20 34 °F 21.6 °F 30.3 in WNW 6.9 mph 6.9 mph 60 % 0 in 0.0 W/m2 CLR
03:26 34 °F 21.6 °F 30.3 in WNW 8.1 mph 8.1 mph 60 % 0 in 0.0 W/m2 CLR
03:31 34 °F 21.6 °F 30.3 in WNW 9.2 mph 9.2 mph 60 % 0 in 0.0 W/m2 CLR
03:36 34 °F 21.6 °F 30.3 in NNW 9.2 mph 9.2 mph 60 % 0 in 0.0 W/m2 CLR
03:41 33.1 °F 21 °F 30.3 in WNW 10.4 mph 10.4 mph 61 % 0 in 0.0 W/m2 CLR
03:47 34 °F 21.9 °F 30.3 in WNW 11.5 mph 11.5 mph 61 % 0 in 0.0 W/m2 CLR
03:52 34 °F 21.9 °F 30.3 in WNW 11.5 mph 11.5 mph 61 % 0 in 0.0 W/m2 CLR
03:57 34 °F 21.6 °F 30.3 in WNW 12.7 mph 12.7 mph 60 % 0 in 0.0 W/m2 CLR
04:02 34 °F 21.9 °F 30.3 in NW 14 mph 14 mph 61 % 0 in 0.0 W/m2 CLR
04:07 34 °F 21.9 °F 30.3 in NW 16.1 mph 16.1 mph 61 % 0 in 0.0 W/m2 CLR
04:12 34 °F 21.9 °F 30.3 in NW 11.5 mph 11.5 mph 61 % 0 in 0.0 W/m2 CLR
04:22 34 °F 21.9 °F 30.3 in WNW 12.7 mph 12.7 mph 61 % 0 in 0.0 W/m2 CLR
04:27 34 °F 21.9 °F 30.3 in WNW 15 mph 15 mph 61 % 0 in 0.0 W/m2 CLR
04:32 34 °F 21.9 °F 30.3 in WNW 11.5 mph 11.5 mph 61 % 0 in 0.0 W/m2 CLR
05:17 34 °F 21.6 °F 30.3 in WNW 18.4 mph 18.4 mph 60 % 0 in 0.0 W/m2 CLR
05:22 34 °F 21.2 °F 30.3 in WNW 21.9 mph 21.9 mph 59 % 0 in 0.0 W/m2 CLR
05:27 34 °F 21.2 °F 30.3 in WNW 13.8 mph 13.8 mph 59 % 0 in 0.0 W/m2 CLR
05:32 34 °F 21.2 °F 30.3 in WSW 9.2 mph 9.2 mph 59 % 0 in 0.0 W/m2 CLR
05:42 34 °F 21.6 °F 30.3 in WNW 15 mph 15 mph 60 % 0 in 0.0 W/m2 CLR
05:47 33.1 °F 20.1 °F 30.3 in WNW 11.5 mph 11.5 mph 59 % 0 in 0.0 W/m2 CLR
05:52 33.1 °F 20.1 °F 30.3 in WNW 16.1 mph 16.1 mph 59 % 0 in 0.0 W/m2 CLR
06:02 33.1 °F 19.8 °F 30.3 in WNW 15 mph 15 mph 58 % 0 in 0.0 W/m2 CLR
06:12 34 °F 20.8 °F 30.3 in WNW 13.8 mph 13.8 mph 58 % 0 in 0.0 W/m2 CLR
06:17 34 °F 20.8 °F 30.4 in West 15 mph 15 mph 58 % 0 in 0.0 W/m2 CLR
06:27 34 °F 20.3 °F 30.4 in WNW 12.7 mph 12.7 mph 57 % 0 in 0.0 W/m2 CLR
06:32 34 °F 20.3 °F 30.4 in WNW 16.1 mph 16.1 mph 57 % 0 in 0.0 W/m2 CLR
06:37 33.1 °F 19.4 °F 30.4 in WNW 18.4 mph 18.4 mph 57 % 0 in 0.0 W/m2 CLR
06:42 34 °F 19.9 °F 30.4 in WNW 17.3 mph 17.3 mph 56 % 0 in 0.0 W/m2 CLR
06:47 34 °F 19.9 °F 30.4 in WNW 18.4 mph 18.4 mph 56 % 0 in 0.0 W/m2 CLR
06:52 33.1 °F 18.7 °F 30.4 in WNW 17.3 mph 17.3 mph 55 % 0 in 0.0 W/m2 CLR
06:57 34 °F 19.6 °F 30.4 in West 19.6 mph 19.6 mph 55 % 0 in 0.0 W/m2 CLR
07:07 34 °F 19.6 °F 30.4 in NW 11.5 mph 11.5 mph 55 % 0 in 0.0 W/m2 CLR
07:12 34 °F 19.6 °F 30.4 in WNW 12.7 mph 12.7 mph 55 % 0 in 0.0 W/m2 CLR
07:17 34 °F 19 °F 30.4 in NW 19.6 mph 19.6 mph 54 % 0 in 0.0 W/m2 CLR
07:22 34 °F 19 °F 30.4 in NW 15 mph 15 mph 54 % 0 in 0.0 W/m2 CLR
07:28 34 °F 19 °F 30.4 in West 13.8 mph 13.8 mph 54 % 0 in 0.0 W/m2 CLR
07:32 34 °F 19 °F 30.4 in West 15 mph 15.2 mph 54 % 0 in 0.0 W/m2 CLR
07:38 34 °F 19 °F 30.4 in NW 13.8 mph 13.8 mph 54 % 0 in 0.0 W/m2 CLR
07:43 34 °F 18.7 °F 30.4 in NW 19.6 mph 19.6 mph 53 % 0 in 0.0 W/m2 CLR
07:48 34 °F 18.7 °F 30.4 in NW 17.3 mph 17.3 mph 53 % 0 in 0.0 W/m2 CLR
07:53 34 °F 18.7 °F 30.4 in WNW 19.6 mph 19.6 mph 53 % 0 in 0.0 W/m2 CLR
08:03 34 °F 18.1 °F 30.4 in WNW 19.6 mph 19.6 mph 52 % 0 in 0.0 W/m2 OVC
08:08 34 °F 18.1 °F 30.4 in WNW 15 mph 15 mph 52 % 0 in 5.0 W/m2 OVC
08:13 34 °F 18.1 °F 30.4 in WNW 17.3 mph 17.3 mph 52 % 0 in 7.0 W/m2 BKN
08:18 34 °F 18.1 °F 30.4 in NW 16.1 mph 16.1 mph 52 % 0 in 9.0 W/m2 BKN
08:23 34 °F 18.1 °F 30.4 in NW 17.3 mph 17.3 mph 52 % 0 in 11.0 W/m2 BKN
08:28 35.1 °F 18.7 °F 30.4 in NW 19.6 mph 19.6 mph 51 % 0 in 14.0 W/m2 BKN
08:38 35.1 °F 18.7 °F 30.4 in WNW 19.6 mph 19.6 mph 51 % 0 in 21.0 W/m2 BKN
08:43 35.1 °F 18.1 °F 30.4 in NW 19.6 mph 19.6 mph 50 % 0 in 32.0 W/m2 BKN
08:48 35.1 °F 18.1 °F 30.4 in WNW 19.6 mph 19.6 mph 50 % 0 in 42.0 W/m2 BKN
08:53 35.1 °F 18.1 °F 30.4 in NW 15 mph 15 mph 50 % 0 in 54.0 W/m2 SCT
08:58 35.1 °F 18.1 °F 30.4 in WNW 16.1 mph 16.1 mph 50 % 0 in 65.0 W/m2 SCT
09:04 35.1 °F 18.1 °F 30.4 in WNW 16.1 mph 16.1 mph 50 % 0 in 77.0 W/m2 FEW
09:14 36 °F 18.7 °F 30.4 in WNW 16.1 mph 16.1 mph 49 % 0 in 83.0 W/m2 FEW
09:19 36 °F 18.7 °F 30.4 in NNW 15 mph 15 mph 49 % 0 in 95.0 W/m2 FEW
09:24 36 °F 18.1 °F 30.4 in WNW 12 mph 12 mph 48 % 0 in 132.0 W/m2 CLR
09:29 36 °F 18.1 °F 30.4 in NW 11.5 mph 11.5 mph 48 % 0 in 146.0 W/m2 CLR
09:39 37 °F 18.7 °F 30.4 in West 18.4 mph 18.4 mph 47 % 0 in 176.0 W/m2 CLR
09:44 37 °F 18.7 °F 30.4 in NW 19.6 mph 19.6 mph 47 % 0 in 190.0 W/m2 CLR
09:59 37.9 °F 19 °F 30.4 in NW 11.5 mph 11.5 mph 46 % 0 in 158.0 W/m2 CLR
10:04 37.9 °F 18.5 °F 30.4 in NW 18.4 mph 18.4 mph 45 % 0 in 239.0 W/m2 CLR
10:09 37.9 °F 18.5 °F 30.4 in WNW 16.1 mph 16.1 mph 45 % 0 in 258.0 W/m2 CLR
10:14 37.9 °F 18 °F 30.4 in WNW 17 mph 17 mph 44 % 0 in 272.0 W/m2 CLR
10:24 39 °F 18.9 °F 30.4 in NW 21.9 mph 21.9 mph 44 % 0 in 241.0 W/m2 CLR
10:29 39 °F 18.3 °F 30.4 in NW 18.4 mph 18.4 mph 43 % 0 in 304.0 W/m2 CLR
10:30 39 °F 18.3 °F 30.4 in NW 19.6 mph 19.6 mph 43 % 0 in 304.0 W/m2 CLR
10:35 39 °F 18.3 °F 30.4 in WNW 18.4 mph 18.4 mph 43 % 0 in 316.0 W/m2 CLR
10:45 39.9 °F 18.7 °F 30.5 in NNW 23 mph 23 mph 42 % 0 in 334.0 W/m2 CLR
10:50 39.9 °F 18.1 °F 30.5 in NW 19.6 mph 19.6 mph 41 % 0 in 343.0 W/m2 CLR
10:55 39.9 °F 18.7 °F 30.5 in NW 16.1 mph 16.1 mph 42 % 0 in 352.0 W/m2 CLR
11:00 39.9 °F 18.1 °F 30.5 in NW 19.6 mph 19.6 mph 41 % 0 in 360.0 W/m2 CLR
11:05 41 °F 19 °F 30.5 in NW 19.6 mph 19.6 mph 41 % 0 in 367.0 W/m2 CLR
11:10 41 °F 18.5 °F 30.5 in NW 19.6 mph 19.6 mph 40 % 0 in 374.0 W/m2 CLR
11:15 41 °F 18.5 °F 30.5 in NW 16.1 mph 16.1 mph 40 % 0 in 383.0 W/m2 CLR
11:20 41 °F 18 °F 30.5 in WNW 16 mph 16 mph 39 % 0 in 392.0 W/m2 CLR
11:25 41 °F 18 °F 30.5 in NW 19.6 mph 19.6 mph 39 % 0 in 397.0 W/m2 CLR
11:30 42.1 °F 18.9 °F 30.5 in NW 19.6 mph 19.6 mph 39 % 0 in 403.0 W/m2 CLR
11:35 42.1 °F 18.9 °F 30.5 in NNW 20.7 mph 20.7 mph 39 % 0 in 410.0 W/m2 CLR
11:40 42.1 °F 18.9 °F 30.5 in NW 18.4 mph 18.4 mph 39 % 0 in 417.0 W/m2 CLR
11:45 42.1 °F 18.1 °F 30.5 in NW 18.4 mph 18.4 mph 38 % 0 in 420.0 W/m2 CLR
11:50 42.1 °F 18.1 °F 30.5 in NW 16.1 mph 16.1 mph 38 % 0 in 425.0 W/m2 CLR
11:55 43 °F 19 °F 30.5 in NW 15 mph 15 mph 38 % 0 in 431.0 W/m2 CLR
12:00 43 °F 18.5 °F 30.5 in NW 16 mph 16 mph 37 % 0 in 436.0 W/m2 CLR
12:05 43 °F 18.5 °F 30.5 in NNW 18.4 mph 18.4 mph 37 % 0 in 441.0 W/m2 CLR
12:10 43 °F 18.5 °F 30.5 in NW 18.4 mph 18.4 mph 37 % 0 in 448.0 W/m2 CLR
12:15 43 °F 17.8 °F 30.5 in NW 16.1 mph 16.1 mph 36 % 0 in 436.0 W/m2 CLR
12:20 43 °F 17.8 °F 30.5 in NNW 19 mph 19 mph 36 % 0 in 394.0 W/m2 CLR
12:25 44.1 °F 18.1 °F 30.5 in NNW 21.9 mph 21.9 mph 35 % 0 in 452.0 W/m2 CLR
12:30 44.1 °F 18.7 °F 30.5 in NW 19.6 mph 19.6 mph 36 % 0 in 457.0 W/m2 CLR
12:35 44.1 °F 18.1 °F 30.5 in NW 26.5 mph 26.5 mph 35 % 0 in 457.0 W/m2 CLR
12:40 44.1 °F 18.1 °F 30.5 in WNW 19.6 mph 19.6 mph 35 % 0 in 459.0 W/m2 CLR
12:45 44.1 °F 18.1 °F 30.5 in NW 20.7 mph 20.7 mph 35 % 0 in 461.0 W/m2 CLR
12:50 45 °F 18.3 °F 30.5 in WNW 13 mph 13 mph 34 % 0 in 415.0 W/m2 CLR
12:55 45 °F 18.3 °F 30.4 in North 17.3 mph 17.3 mph 34 % 0 in 461.0 W/m2 CLR
13:00 45 °F 18.3 °F 30.4 in NNW 17.3 mph 17.3 mph 34 % 0 in 438.0 W/m2 CLR
13:05 45 °F 19 °F 30.4 in NW 16.1 mph 16.1 mph 35 % 0 in 459.0 W/m2 CLR
13:10 45 °F 18.3 °F 30.4 in North 18.4 mph 18.4 mph 34 % 0 in 455.0 W/m2 CLR
13:16 46 °F 19.2 °F 30.4 in NW 20.7 mph 20.7 mph 34 % 0 in 455.0 W/m2 CLR
13:21 46 °F 19.2 °F 30.4 in NNW 18 mph 18 mph 34 % 0 in 450.0 W/m2 CLR
13:26 46 °F 18.5 °F 30.4 in NW 17.3 mph 17.3 mph 33 % 0 in 446.0 W/m2 CLR
13:31 46 °F 18.5 °F 30.4 in NNW 18.4 mph 18.4 mph 33 % 0 in 445.0 W/m2 CLR
13:36 46 °F 17.8 °F 30.4 in NNW 20.7 mph 20.7 mph 32 % 0 in 443.0 W/m2 CLR
13:41 46 °F 17.8 °F 30.4 in NW 17.3 mph 17.3 mph 32 % 0 in 439.0 W/m2 CLR
13:46 46 °F 17.8 °F 30.4 in NNW 16.1 mph 16.1 mph 32 % 0 in 441.0 W/m2 CLR
13:51 46.9 °F 18 °F 30.4 in North 18.4 mph 18.4 mph 31 % 0 in 448.0 W/m2 CLR
13:56 46.9 °F 18 °F 30.4 in NNW 19.6 mph 19.6 mph 31 % 0 in 445.0 W/m2 CLR
14:01 46.9 °F 18 °F 30.4 in NNW 19.6 mph 19.6 mph 31 % 0 in 431.0 W/m2 CLR
14:06 46.9 °F 18 °F 30.4 in NNW 20.7 mph 20.7 mph 31 % 0 in 299.0 W/m2 CLR
14:11 46.9 °F 18 °F 30.4 in NNW 17.3 mph 17.3 mph 31 % 0 in 411.0 W/m2 CLR
14:16 46.9 °F 18 °F 30.4 in NNW 13.8 mph 13.8 mph 31 % 0 in 404.0 W/m2 CLR
14:21 48 °F 18 °F 30.4 in North 19.6 mph 19.6 mph 30 % 0 in 397.0 W/m2 CLR
14:26 46.9 °F 17.1 °F 30.4 in NNW 21.9 mph 21.9 mph 30 % 0 in 390.0 W/m2 CLR
14:31 46.9 °F 17.1 °F 30.4 in NW 20.7 mph 20.7 mph 30 % 0 in 383.0 W/m2 CLR
14:36 48 °F 18 °F 30.4 in North 18 mph 18 mph 30 % 0 in 374.0 W/m2 CLR
14:41 48 °F 18 °F 30.4 in NW 19.6 mph 19.6 mph 30 % 0 in 366.0 W/m2 CLR
14:46 46.9 °F 17.1 °F 30.4 in NNW 19.6 mph 19.6 mph 30 % 0 in 355.0 W/m2 CLR
14:51 46.9 °F 17.1 °F 30.4 in NNW 18.4 mph 18.4 mph 30 % 0 in 348.0 W/m2 CLR
14:56 48 °F 18.9 °F 30.4 in NW 18.4 mph 18.4 mph 31 % 0 in 339.0 W/m2 CLR
15:01 46.9 °F 18 °F 30.4 in North 19.6 mph 19.6 mph 31 % 0 in 329.0 W/m2 CLR
15:06 46.9 °F 18 °F 30.4 in NNW 19.6 mph 19.6 mph 31 % 0 in 318.0 W/m2 CLR
15:11 46.9 °F 18 °F 30.4 in NNW 18.4 mph 18.4 mph 31 % 0 in 308.0 W/m2 CLR
15:16 46.9 °F 18 °F 30.4 in WNW 15 mph 15 mph 31 % 0 in 299.0 W/m2 CLR
15:21 46.9 °F 18 °F 30.4 in NW 20.7 mph 20.7 mph 31 % 0 in 287.0 W/m2 CLR
15:23 46.9 °F 18 °F 30.4 in NNW 17.3 mph 17.3 mph 31 % 0 in 283.0 W/m2 CLR
15:28 46.9 °F 18 °F 30.4 in NW 15 mph 15 mph 31 % 0 in 272.0 W/m2 CLR
15:33 46.9 °F 18 °F 30.4 in NNW 18.4 mph 18.4 mph 31 % 0 in 258.0 W/m2 CLR
15:38 46.9 °F 18 °F 30.4 in NNW 19.6 mph 19.6 mph 31 % 0 in 246.0 W/m2 CLR
15:43 46.9 °F 18 °F 30.4 in NNW 18.4 mph 18.4 mph 31 % 0 in 232.0 W/m2 CLR
15:48 46 °F 17.8 °F 30.4 in NW 17.3 mph 17.3 mph 32 % 0 in 220.0 W/m2 CLR
15:53 46 °F 17.8 °F 30.4 in NNW 20.7 mph 20.7 mph 32 % 0 in 207.0 W/m2 CLR
15:58 46 °F 17.8 °F 30.4 in NNW 18.4 mph 18.4 mph 32 % 0 in 193.0 W/m2 CLR
16:03 45 °F 16.9 °F 30.4 in NNW 20.7 mph 20.7 mph 32 % 0 in 176.0 W/m2 CLR
16:08 45 °F 17.6 °F 30.4 in NNW 18.4 mph 18.4 mph 33 % 0 in 160.0 W/m2 CLR
16:13 45 °F 17.6 °F 30.4 in NNW 19.6 mph 19.6 mph 33 % 0 in 146.0 W/m2 CLR
16:14 45 °F 17.6 °F 30.4 in NW 19.6 mph 19.6 mph 33 % 0 in 144.0 W/m2 CLR
16:19 45 °F 17.6 °F 30.4 in NW 19.6 mph 19.6 mph 33 % 0 in 128.0 W/m2 CLR
16:24 45 °F 17.6 °F 30.4 in NNW 17.3 mph 17.3 mph 33 % 0 in 114.0 W/m2 CLR
16:29 45 °F 17.6 °F 30.4 in North 16 mph 16 mph 33 % 0 in 102.0 W/m2 CLR
16:34 45 °F 17.6 °F 30.4 in NW 14 mph 14 mph 33 % 0 in 90.0 W/m2 CLR
16:39 44.1 °F 16.7 °F 30.4 in NW 20.7 mph 20.7 mph 33 % 0 in 67.0 W/m2 FEW
16:44 44.1 °F 16.7 °F 30.4 in NNW 19.6 mph 19.6 mph 33 % 0 in 53.0 W/m2 SCT
16:49 44.1 °F 17.4 °F 30.4 in NNW 19 mph 19 mph 34 % 0 in 51.0 W/m2 SCT
16:54 44.1 °F 17.4 °F 30.4 in NW 15 mph 15 mph 34 % 0 in 26.0 W/m2 BKN
16:59 43 °F 16.5 °F 30.4 in NW 16.1 mph 16.1 mph 34 % 0 in 30.0 W/m2 BKN
17:04 43 °F 17.2 °F 30.4 in NW 11.5 mph 11.5 mph 35 % 0 in 12.0 W/m2 BKN
17:09 43 °F 17.8 °F 30.4 in NW 17.3 mph 17.3 mph 36 % 0 in 11.0 W/m2 BKN
17:14 43 °F 17.8 °F 30.4 in NW 13.8 mph 13.8 mph 36 % 0 in 9.0 W/m2 BKN
17:19 43 °F 17.8 °F 30.4 in NNW 17 mph 17 mph 36 % 0 in 7.0 W/m2 BKN
17:24 42.1 °F 16.9 °F 30.4 in NW 12.7 mph 12.7 mph 36 % 0 in 5.0 W/m2 OVC
17:29 42.1 °F 16.3 °F 30.4 in NW 19.6 mph 19.6 mph 35 % 0 in 5.0 W/m2 OVC
17:34 42.1 °F 16.3 °F 30.4 in WNW 12.7 mph 12.7 mph 35 % 0 in 0.0 W/m2 OVC
17:39 42.1 °F 16.3 °F 30.5 in NW 12.7 mph 12.7 mph 35 % 0 in 0.0 W/m2 OVC
17:44 41 °F 15.4 °F 30.4 in WNW 11.5 mph 11.5 mph 35 % 0 in 0.0 W/m2 CLR
17:49 41 °F 15.4 °F 30.4 in WNW 15 mph 15 mph 35 % 0 in 0.0 W/m2 CLR
17:54 41 °F 15.4 °F 30.4 in NW 17 mph 17 mph 35 % 0 in 0.0 W/m2 CLR
17:59 41 °F 15.4 °F 30.5 in WNW 11.5 mph 11.5 mph 35 % 0 in 0.0 W/m2 CLR
18:04 41 °F 15.4 °F 30.5 in NW 11.5 mph 11.5 mph 35 % 0 in 0.0 W/m2 CLR
18:09 39.9 °F 15.3 °F 30.5 in WNW 12.7 mph 12.7 mph 36 % 0 in 0.0 W/m2 CLR
18:14 39.9 °F 15.3 °F 30.5 in NW 12.7 mph 12.7 mph 36 % 0 in 0.0 W/m2 CLR
18:19 39.9 °F 15.3 °F 30.5 in WNW 12 mph 12 mph 36 % 0 in 0.0 W/m2 CLR
18:24 39.9 °F 15.8 °F 30.5 in NW 15 mph 15 mph 37 % 0 in 0.0 W/m2 CLR
18:29 39 °F 14.9 °F 30.5 in NW 13.8 mph 13.8 mph 37 % 0 in 0.0 W/m2 CLR
18:34 39.9 °F 16.3 °F 30.5 in NW 15 mph 15 mph 38 % 0 in 0.0 W/m2 CLR
18:39 39.9 °F 17.1 °F 30.5 in WNW 11.5 mph 11.5 mph 39 % 0 in 0.0 W/m2 CLR
18:44 39.9 °F 17.1 °F 30.5 in NW 9.2 mph 9.2 mph 39 % 0 in 0.0 W/m2 CLR
18:49 39.9 °F 17.1 °F 30.5 in WNW 12.7 mph 12.7 mph 39 % 0 in 0.0 W/m2 CLR
18:54 39.9 °F 17.1 °F 30.5 in WNW 13.8 mph 13.8 mph 39 % 0 in 0.0 W/m2 CLR
18:59 39 °F 16.7 °F 30.5 in WNW 12.7 mph 12.7 mph 40 % 0 in 0.0 W/m2 CLR
19:04 39 °F 16.7 °F 30.5 in WSW 1.2 mph   40 % 0 in 0.0 W/m2 CLR
19:09 39 °F 16.7 °F 30.5 in West 2 mph 2.3 mph 40 % 0 in 0.0 W/m2 CLR
19:14 39 °F 18.3 °F 30.5 in WNW 10.4 mph 10.4 mph 43 % 0 in 0.0 W/m2 CLR
19:19 37.9 °F 18 °F 30.5 in NW 12.7 mph 12.7 mph 44 % 0 in 0.0 W/m2 CLR
19:24 37 °F 17.6 °F 30.5 in NW 11.5 mph 11.5 mph 45 % 0 in 0.0 W/m2 CLR
19:29 36 °F 16.7 °F 30.5 in WNW 9.2 mph 9.2 mph 45 % 0 in 0.0 W/m2 CLR
19:34 35.1 °F 15.8 °F 30.5 in WNW 8.1 mph 8.1 mph 45 % 0 in 0.0 W/m2 CLR
19:39 34 °F 14.9 °F 30.5 in West 6 mph 6 mph 45 % 0 in 0.0 W/m2 CLR
19:44 34 °F 14.9 °F 30.5 in West 8.1 mph 8.1 mph 45 % 0 in 0.0 W/m2 CLR
19:49 37 °F 18.1 °F 30.5 in West 9.2 mph 9.2 mph 46 % 0 in 0.0 W/m2 CLR
19:54 37 °F 18.7 °F 30.5 in WNW 3.5 mph 3.5 mph 47 % 0 in 0.0 W/m2 CLR
19:59 36 °F 18.1 °F 30.5 in West 4.6 mph 5.2 mph 48 % 0 in 0.0 W/m2 CLR
20:04 35.1 °F 17.8 °F 30.5 in West 6.9 mph 6.9 mph 49 % 0 in 0.0 W/m2 CLR
20:09 34 °F 16.9 °F 30.5 in West 5.8 mph 5.8 mph 49 % 0 in 0.0 W/m2 CLR
20:14 33.1 °F 16.3 °F 30.5 in West 9.2 mph 9.2 mph 50 % 0 in 0.0 W/m2 CLR
20:19 32 °F 16 °F 30.5 in West 9.2 mph 9.2 mph 51 % 0 in 0.0 W/m2 CLR
20:29 32 °F 16.3 °F 30.5 in WNW 10.4 mph 10.4 mph 52 % 0 in 0.0 W/m2 CLR
20:34 33.1 °F 17.8 °F 30.5 in West 14 mph 14 mph 53 % 0 in 0.0 W/m2 CLR
20:39 34 °F 19 °F 30.5 in West 11.5 mph 11.5 mph 54 % 0 in 0.0 W/m2 CLR
20:44 35.1 °F 19.9 °F 30.5 in West 16 mph 16 mph 54 % 0 in 0.0 W/m2 CLR
20:49 37 °F 22.3 °F 30.5 in West 10.4 mph 10.4 mph 55 % 0 in 0.0 W/m2 CLR
20:55 37.9 °F 23.7 °F 30.5 in West 9.2 mph 9.2 mph 56 % 0 in 0.0 W/m2 CLR
21:00 37 °F 23.2 °F 30.5 in West 11.5 mph 11.5 mph 57 % 0 in 0.0 W/m2 CLR
21:05 37 °F 23.5 °F 30.5 in West 12 mph 12 mph 58 % 0 in 0.0 W/m2 CLR
21:10 37 °F 24.1 °F 30.5 in WNW 10.4 mph 10.4 mph 59 % 0 in 0.0 W/m2 CLR
21:15 37 °F 24.4 °F 30.5 in WNW 12.7 mph 12.7 mph 60 % 0 in 0.0 W/m2 CLR
21:20 36 °F 23.7 °F 30.5 in West 12 mph 12 mph 61 % 0 in 0.0 W/m2 CLR
21:25 36 °F 24.3 °F 30.5 in WNW 13.8 mph 13.8 mph 62 % 0 in 0.0 W/m2 CLR
21:30 37 °F 25.5 °F 30.5 in NW 12.7 mph 12.7 mph 63 % 0 in 0.0 W/m2 CLR
21:35 37 °F 25.5 °F 30.5 in WNW 13.8 mph 13.8 mph 63 % 0 in 0.0 W/m2 CLR
21:40 37.9 °F 26.4 °F 30.5 in WNW 14 mph 14 mph 63 % 0 in 0.0 W/m2 CLR
21:45 37.9 °F 27 °F 30.5 in NW 12.7 mph 12.7 mph 64 % 0 in 0.0 W/m2 CLR
21:50 37.9 °F 27 °F 30.5 in WNW 13 mph 13 mph 64 % 0 in 0.0 W/m2 CLR
21:55 37 °F 26.2 °F 30.5 in WNW 12.7 mph 12.7 mph 65 % 0 in 0.0 W/m2 CLR
22:00 37 °F 26.2 °F 30.5 in WNW 12.7 mph 12.7 mph 65 % 0 in 0.0 W/m2 CLR
22:05 37 °F 26.8 °F 30.5 in WNW 12.7 mph 12.7 mph 66 % 0 in 0.0 W/m2 CLR
22:10 37.9 °F 27.7 °F 30.5 in NW 12.7 mph 12.7 mph 66 % 0 in 0.0 W/m2 CLR
22:15 37.9 °F 27.7 °F 30.5 in West 12.7 mph 12.7 mph 66 % 0 in 0.0 W/m2 CLR
22:20 37 °F 26.8 °F 30.5 in WNW 13 mph 13 mph 66 % 0 in 0.0 W/m2 CLR
22:25 37 °F 26.8 °F 30.5 in WNW 11.5 mph 11.5 mph 66 % 0 in 0.0 W/m2 CLR
22:30 37 °F 26.8 °F 30.5 in West 9.2 mph 9.2 mph 66 % 0 in 0.0 W/m2 CLR
22:35 37 °F 27.1 °F 30.5 in West 6.9 mph 6.9 mph 67 % 0 in 0.0 W/m2 CLR
22:40 36 °F 26.4 °F 30.5 in WNW 6 mph 6 mph 68 % 0 in 0.0 W/m2 CLR
22:45 35.1 °F 25.5 °F 30.5 in West 5.8 mph 5.8 mph 68 % 0 in 0.0 W/m2 CLR
22:50 34 °F 24.4 °F 30.5 in West 8.1 mph 8.1 mph 68 % 0 in 0.0 W/m2 CLR
22:55 32 °F 22.6 °F 30.5 in West 8.1 mph 8.1 mph 68 % 0 in 0.0 W/m2 CLR
23:00 32 °F 23 °F 30.5 in West 8.1 mph 8.1 mph 69 % 0 in 0.0 W/m2 CLR
23:05 30.9 °F 21.9 °F 30.5 in West 6 mph 6 mph 69 % 0 in 0.0 W/m2 CLR
23:10 30 °F 21 °F 30.5 in West 6.9 mph 6.9 mph 69 % 0 in 0.0 W/m2 CLR
23:15 30 °F 21 °F 30.5 in West 3.5 mph 3.5 mph 69 % 0 in 0.0 W/m2 CLR
23:20 28.9 °F 20.5 °F 30.5 in West 5.8 mph 5.8 mph 70 % 0 in 0.0 W/m2 CLR
23:25 28 °F 19.8 °F 30.5 in West 5.8 mph 5.8 mph 71 % 0 in 0.0 W/m2 CLR
23:30 28 °F 19.8 °F 30.5 in WNW 5.8 mph 5.8 mph 71 % 0 in 0.0 W/m2 CLR
23:35 28 °F 19.8 °F 30.5 in West 6.9 mph 6.9 mph 71 % 0 in 0.0 W/m2 CLR
23:40 27 °F 18.9 °F 30.5 in West 4.6 mph 4.6 mph 71 % 0 in 0.0 W/m2 CLR
23:42 27 °F 18.9 °F 30.5 in WSW 4 mph 4 mph 71 % 0 in 0.0 W/m2 CLR
23:47 27 °F 19.2 °F 30.5 in WSW 4.6 mph 4.9 mph 72 % 0 in 0.0 W/m2 CLR
23:52 27 °F 19.2 °F 30.5 in West 3.5 mph 3.5 mph 72 % 0 in 0.0 W/m2 CLR
23:57 27 °F 19.6 °F 30.5 in WNW 5.8 mph 5.8 mph 73 % 0 in 0.0 W/m2 CLR
Lo Temps de Massalio
Compliments of Weather Underground - 1 mb